createdAt,value
2023-05-15T00:00:34.153Z,0.77
2023-05-15T00:03:02.526Z,0.90
2023-05-15T00:05:31.911Z,0.97
2023-05-15T00:07:59.790Z,1.10
2023-05-15T00:10:27.604Z,1.10
2023-05-15T00:12:56.373Z,1.10
2023-05-15T00:15:24.360Z,0.80
2023-05-15T00:17:52.332Z,0.90
2023-05-15T00:20:20.613Z,1.20
2023-05-15T00:22:49.820Z,1.27
2023-05-15T00:25:19.594Z,1.20
2023-05-15T00:27:47.554Z,1.00
2023-05-15T00:30:16.152Z,1.40
2023-05-15T00:32:44.180Z,1.30
2023-05-15T00:35:12.100Z,1.30
2023-05-15T00:37:40.203Z,1.20
2023-05-15T00:40:11.515Z,1.00
2023-05-15T00:42:39.925Z,1.30
2023-05-15T00:45:10.501Z,0.97
2023-05-15T00:47:40.054Z,1.30
2023-05-15T00:50:10.388Z,1.50
2023-05-15T00:52:38.610Z,1.30
2023-05-15T00:55:07.507Z,1.30
2023-05-15T00:57:37.065Z,1.50
2023-05-15T01:00:07.093Z,1.50
2023-05-15T01:02:35.058Z,1.60
2023-05-15T01:05:03.679Z,1.60
2023-05-15T01:07:35.235Z,1.63
2023-05-15T01:10:04.982Z,1.47
2023-05-15T01:12:33.356Z,1.50
2023-05-15T01:15:02.692Z,1.53
2023-05-15T01:17:30.983Z,1.87
2023-05-15T01:19:59.877Z,1.30
2023-05-15T01:22:48.868Z,1.70
2023-05-15T01:25:45.814Z,1.33
2023-05-15T01:28:16.416Z,1.50
2023-05-15T01:30:46.598Z,1.47
2023-05-15T01:33:19.964Z,1.30
2023-05-15T01:35:51.156Z,1.17
2023-05-15T01:38:21.290Z,1.10
2023-05-15T01:40:50.201Z,1.10
2023-05-15T01:43:23.970Z,1.20
2023-05-15T01:45:51.900Z,1.30
2023-05-15T01:48:20.681Z,1.60
2023-05-15T01:50:51.181Z,1.67
2023-05-15T01:53:20.187Z,1.53
2023-05-15T01:55:49.168Z,1.70
2023-05-15T01:58:17.637Z,1.60
2023-05-15T02:00:48.051Z,1.60
2023-05-15T02:03:16.767Z,1.50
2023-05-15T02:05:44.916Z,1.80
2023-05-15T02:08:13.524Z,1.60
2023-05-15T02:10:41.738Z,1.47
2023-05-15T02:13:12.647Z,1.67
2023-05-15T02:15:40.516Z,1.77
2023-05-15T02:18:09.705Z,1.80
2023-05-15T02:20:37.537Z,1.63
2023-05-15T02:23:05.445Z,1.80
2023-05-15T02:25:37.188Z,1.60
2023-05-15T02:28:06.448Z,1.40
2023-05-15T02:30:50.448Z,1.27
2023-05-15T02:33:28.223Z,1.20
2023-05-15T02:36:00.158Z,1.10
2023-05-15T02:38:30.796Z,0.90
2023-05-15T02:40:59.366Z,0.90
2023-05-15T02:43:27.728Z,1.00
2023-05-15T02:45:56.657Z,0.93
2023-05-15T02:48:26.082Z,1.00
2023-05-15T02:50:54.380Z,1.00
2023-05-15T02:53:22.251Z,0.97
2023-05-15T02:55:50.111Z,1.00
2023-05-15T02:58:18.017Z,0.90
2023-05-15T03:00:45.913Z,0.70
2023-05-15T03:03:13.731Z,0.80
2023-05-15T03:05:43.134Z,0.80
2023-05-15T03:08:10.956Z,0.83
2023-05-15T03:10:38.813Z,0.60
2023-05-15T03:13:06.657Z,0.80
2023-05-15T03:15:34.503Z,0.60
2023-05-15T03:18:02.733Z,0.70
2023-05-15T03:20:30.629Z,0.70
2023-05-15T03:22:59.891Z,0.83
2023-05-15T03:25:28.005Z,0.80
2023-05-15T03:27:56.014Z,0.70
2023-05-15T03:30:23.883Z,0.87
2023-05-15T03:32:51.805Z,0.80
2023-05-15T03:35:19.719Z,0.73
2023-05-15T03:37:47.542Z,1.00
2023-05-15T03:40:17.004Z,0.80
2023-05-15T03:42:44.848Z,0.80
2023-05-15T03:45:12.673Z,0.60
2023-05-15T03:47:40.633Z,0.97
2023-05-15T03:50:09.052Z,1.00
2023-05-15T03:52:36.916Z,0.90
2023-05-15T03:55:05.421Z,0.73
2023-05-15T03:57:35.633Z,0.90
2023-05-15T04:00:09.745Z,1.07
2023-05-15T04:02:38.067Z,0.90
2023-05-15T04:05:06.944Z,1.00
2023-05-15T04:07:35.506Z,1.10
2023-05-15T04:10:03.681Z,0.93
2023-05-15T04:12:33.169Z,1.10
2023-05-15T04:15:15.487Z,0.97
2023-05-15T04:17:43.407Z,1.00
2023-05-15T04:20:12.295Z,1.00
2023-05-15T04:22:40.177Z,1.07
2023-05-15T04:25:09.225Z,0.87
2023-05-15T04:27:37.560Z,1.20
2023-05-15T04:30:08.154Z,1.10
2023-05-15T04:32:36.388Z,1.00
2023-05-15T04:35:06.451Z,1.23
2023-05-15T04:37:34.249Z,1.30
2023-05-15T04:40:02.210Z,1.20
2023-05-15T04:42:30.055Z,1.30
2023-05-15T04:44:57.907Z,1.33
2023-05-15T04:47:27.264Z,1.40
2023-05-15T04:49:55.115Z,1.30
2023-05-15T04:52:22.974Z,1.50
2023-05-15T04:54:53.007Z,1.50
2023-05-15T04:57:21.501Z,1.20
2023-05-15T04:59:49.591Z,1.40
2023-05-15T05:02:17.476Z,1.13
2023-05-15T05:04:47.017Z,1.50
2023-05-15T05:07:14.852Z,1.50
2023-05-15T05:09:42.786Z,1.43
2023-05-15T05:12:11.057Z,1.97
2023-05-15T05:14:40.789Z,1.50
2023-05-15T05:17:08.736Z,1.77
2023-05-15T05:19:36.565Z,1.80
2023-05-15T05:22:07.661Z,1.60
2023-05-15T05:24:37.520Z,2.07
2023-05-15T05:27:05.972Z,2.43
2023-05-15T05:29:34.147Z,2.80
2023-05-15T05:32:02.297Z,2.27
2023-05-15T05:34:30.439Z,2.47
2023-05-15T05:36:59.858Z,2.70
2023-05-15T05:39:32.539Z,2.37
2023-05-15T05:42:00.484Z,2.37
2023-05-15T05:44:28.440Z,2.53
2023-05-15T05:46:56.380Z,2.47
2023-05-15T05:49:24.208Z,2.53
2023-05-15T05:51:52.067Z,2.30
2023-05-15T05:54:19.931Z,2.00
2023-05-15T05:56:49.187Z,1.97
2023-05-15T05:59:17.347Z,2.00
2023-05-15T06:01:45.268Z,2.10
2023-05-15T06:04:13.121Z,1.80
2023-05-15T06:06:42.477Z,1.77
2023-05-15T06:09:10.304Z,1.97
2023-05-15T06:11:38.310Z,1.63
2023-05-15T06:14:08.422Z,1.70
2023-05-15T06:16:36.683Z,1.60
2023-05-15T06:19:04.580Z,1.83
2023-05-15T06:21:32.429Z,1.83
2023-05-15T06:24:00.420Z,1.60
2023-05-15T06:26:28.374Z,1.70
2023-05-15T06:28:56.265Z,1.70
2023-05-15T06:31:25.615Z,1.57
2023-05-15T06:33:53.507Z,1.20
2023-05-15T06:36:21.373Z,1.40
2023-05-15T06:38:49.246Z,1.40
2023-05-15T06:41:17.062Z,1.33
2023-05-15T06:43:44.930Z,0.97
2023-05-15T06:46:12.807Z,1.30
2023-05-15T06:48:42.013Z,1.17
2023-05-15T06:51:09.861Z,1.30
2023-05-15T06:53:37.732Z,1.00
2023-05-15T06:56:07.824Z,1.20
2023-05-15T06:58:35.716Z,1.20
2023-05-15T07:01:04.112Z,1.13
2023-05-15T07:03:31.987Z,1.20
2023-05-15T07:06:01.233Z,1.30
2023-05-15T07:08:29.296Z,1.20
2023-05-15T07:10:57.122Z,1.20
2023-05-15T07:13:24.962Z,1.47
2023-05-15T07:15:52.838Z,1.27
2023-05-15T07:18:20.757Z,0.97
2023-05-15T07:20:48.635Z,1.10
2023-05-15T07:23:17.880Z,1.00
2023-05-15T07:25:46.164Z,1.00
2023-05-15T07:28:14.102Z,0.80
2023-05-15T07:30:42.135Z,0.80
2023-05-15T07:33:09.965Z,0.70
2023-05-15T07:35:37.844Z,0.83
2023-05-15T07:38:05.867Z,0.80
2023-05-15T07:40:35.198Z,0.90
2023-05-15T07:43:03.070Z,0.90
2023-05-15T07:45:30.936Z,0.80
2023-05-15T07:47:58.953Z,0.90
2023-05-15T07:50:26.862Z,0.57
2023-05-15T07:52:54.937Z,0.60
2023-05-15T07:55:22.983Z,0.70
2023-05-15T07:57:53.770Z,0.57
2023-05-15T08:00:22.781Z,0.60
2023-05-15T08:02:50.814Z,0.70
2023-05-15T08:05:18.755Z,0.83
2023-05-15T08:07:47.116Z,0.60
2023-05-15T08:10:14.969Z,0.63
2023-05-15T08:12:46.252Z,0.60
2023-05-15T08:15:16.248Z,0.63
2023-05-15T08:17:44.167Z,0.60
2023-05-15T08:20:13.101Z,0.60
2023-05-15T08:22:40.971Z,0.60
2023-05-15T08:25:09.836Z,0.70
2023-05-15T08:27:37.629Z,0.70
2023-05-15T08:30:06.258Z,0.80
2023-05-15T08:32:35.555Z,0.60
2023-05-15T08:35:03.409Z,0.60
2023-05-15T08:37:33.718Z,0.60
2023-05-15T08:40:01.634Z,0.57
2023-05-15T08:42:34.357Z,0.60
2023-05-15T08:45:02.932Z,0.60
2023-05-15T08:47:30.900Z,0.60
2023-05-15T08:50:06.019Z,0.63
2023-05-15T08:52:34.248Z,0.70
2023-05-15T08:55:02.564Z,0.70
2023-05-15T08:57:31.473Z,0.70
2023-05-15T08:59:59.370Z,0.60
2023-05-15T09:02:27.316Z,0.70
2023-05-15T09:04:57.965Z,0.63
2023-05-15T09:07:27.234Z,0.70
2023-05-15T09:09:55.716Z,0.83
2023-05-15T09:12:25.844Z,0.60
2023-05-15T09:14:53.701Z,0.70
2023-05-15T09:17:21.588Z,0.50
2023-05-15T09:19:49.508Z,0.73
2023-05-15T09:22:18.394Z,0.67
2023-05-15T09:24:49.060Z,0.63
2023-05-15T09:27:16.931Z,0.60
2023-05-15T09:29:45.318Z,0.70
2023-05-15T09:32:14.365Z,0.67
2023-05-15T09:34:44.035Z,0.90
2023-05-15T09:37:13.413Z,0.80
2023-05-15T09:39:44.829Z,0.73
2023-05-15T09:42:15.669Z,0.50
2023-05-15T09:44:44.105Z,0.60
2023-05-15T09:47:12.267Z,0.63
2023-05-15T09:49:40.239Z,0.60
2023-05-15T09:52:10.187Z,0.70
2023-05-15T09:54:38.960Z,0.60
2023-05-15T09:57:10.868Z,0.50
2023-05-15T09:59:45.698Z,0.40
2023-05-15T10:02:15.368Z,0.70
2023-05-15T10:04:43.149Z,0.60
2023-05-15T10:07:11.121Z,0.70
2023-05-15T10:09:39.774Z,0.60
2023-05-15T10:12:09.694Z,0.70
2023-05-15T10:14:37.528Z,0.80
2023-05-15T10:17:06.883Z,0.70
2023-05-15T10:19:39.307Z,0.70
2023-05-15T10:22:12.572Z,0.80
2023-05-15T10:24:42.354Z,0.70
2023-05-15T10:27:10.636Z,0.90
2023-05-15T10:29:39.099Z,0.70
2023-05-15T10:32:08.493Z,0.60
2023-05-15T10:34:36.488Z,0.73
2023-05-15T10:37:04.850Z,0.80
2023-05-15T10:39:32.818Z,0.90
2023-05-15T10:42:01.033Z,0.60
2023-05-15T10:44:28.862Z,0.70
2023-05-15T10:46:57.180Z,0.87
2023-05-15T10:49:26.646Z,0.70
2023-05-15T10:51:54.569Z,0.80
2023-05-15T10:54:23.334Z,0.60
2023-05-15T10:56:52.350Z,0.80
2023-05-15T10:59:20.436Z,0.70
2023-05-15T11:01:49.264Z,0.73
2023-05-15T11:04:18.398Z,0.70
2023-05-15T11:06:50.519Z,0.87
2023-05-15T11:09:40.492Z,0.60
2023-05-15T11:12:11.846Z,0.70
2023-05-15T11:14:44.029Z,0.70
2023-05-15T11:17:12.558Z,0.63
2023-05-15T11:19:58.943Z,0.70
2023-05-15T11:22:33.092Z,0.70
2023-05-15T11:25:02.754Z,0.67
2023-05-15T11:27:32.525Z,0.80
2023-05-15T11:30:08.295Z,0.73
2023-05-15T11:33:01.015Z,0.70
2023-05-15T11:35:30.395Z,0.60
2023-05-15T11:38:01.067Z,0.60
2023-05-15T11:40:30.388Z,0.70
2023-05-15T11:43:09.366Z,0.70
2023-05-15T11:45:38.974Z,0.80
2023-05-15T11:48:09.063Z,0.60
2023-05-15T11:50:37.026Z,0.60
2023-05-15T11:53:08.011Z,0.60
2023-05-15T11:55:37.399Z,0.70
2023-05-15T11:58:11.798Z,0.50
2023-05-15T12:00:39.693Z,0.57
2023-05-15T12:03:07.662Z,0.63
2023-05-15T12:05:35.779Z,0.60
2023-05-15T12:08:03.876Z,0.60
2023-05-15T12:10:33.408Z,0.50
2023-05-15T12:13:01.411Z,0.60
2023-05-15T12:15:29.286Z,0.60
2023-05-15T12:17:57.135Z,0.60
2023-05-15T12:20:25.280Z,0.50
2023-05-15T12:22:53.677Z,0.60
2023-05-15T12:25:21.701Z,0.50
2023-05-15T12:27:50.954Z,0.53
2023-05-15T12:30:19.540Z,0.53
2023-05-15T12:32:47.476Z,0.50
2023-05-15T12:35:15.412Z,0.50
2023-05-15T12:37:43.650Z,0.50
2023-05-15T12:40:12.403Z,0.50
2023-05-15T12:42:41.336Z,0.53
2023-05-15T12:45:20.518Z,0.50
2023-05-15T12:47:49.877Z,0.50
2023-05-15T12:50:19.046Z,0.50
2023-05-15T12:52:54.038Z,0.50
2023-05-15T12:55:25.688Z,0.50
2023-05-15T12:57:53.996Z,0.50
2023-05-15T13:00:24.271Z,0.50
2023-05-15T13:02:53.664Z,0.60
2023-05-15T13:05:22.213Z,0.50
2023-05-15T13:07:50.105Z,0.50
2023-05-15T13:10:17.950Z,0.60
2023-05-15T13:12:47.134Z,0.50
2023-05-15T13:15:27.759Z,0.40
2023-05-15T13:17:59.485Z,0.40
2023-05-15T13:20:28.607Z,0.60
2023-05-15T13:22:56.478Z,0.50
2023-05-15T13:25:24.413Z,0.40
2023-05-15T13:27:52.821Z,0.40
2023-05-15T13:30:20.815Z,0.60
2023-05-15T13:32:54.682Z,0.50
2023-05-15T13:35:23.494Z,0.40
2023-05-15T13:37:51.566Z,0.50
2023-05-15T13:40:19.477Z,0.57
2023-05-15T13:42:47.293Z,0.50
2023-05-15T13:45:16.635Z,0.50
2023-05-15T13:47:45.020Z,0.47
2023-05-15T13:50:15.758Z,0.50
2023-05-15T13:52:45.278Z,0.50
2023-05-15T13:55:13.165Z,0.50
2023-05-15T13:57:42.177Z,0.50
2023-05-15T14:00:13.111Z,0.40
2023-05-15T14:02:41.847Z,0.50
2023-05-15T14:05:10.377Z,0.50
2023-05-15T14:07:39.741Z,0.50
2023-05-15T14:10:08.621Z,0.50
2023-05-15T14:12:37.053Z,0.50
2023-05-15T14:15:05.401Z,0.47
2023-05-15T14:17:33.281Z,0.40
2023-05-15T14:20:01.157Z,0.50
2023-05-15T14:22:29.125Z,0.50
2023-05-15T14:24:58.331Z,0.40
2023-05-15T14:27:26.252Z,0.40
2023-05-15T14:29:54.048Z,0.50
2023-05-15T14:32:21.927Z,0.50
2023-05-15T14:34:49.774Z,0.47
2023-05-15T14:37:17.671Z,0.40
2023-05-15T14:39:45.599Z,0.47
2023-05-15T14:42:15.048Z,0.50
2023-05-15T14:44:42.874Z,0.50
2023-05-15T14:47:12.712Z,0.40
2023-05-15T14:49:41.351Z,0.50
2023-05-15T14:52:10.148Z,0.50
2023-05-15T14:54:38.947Z,0.40
2023-05-15T14:57:07.249Z,0.50
2023-05-15T14:59:36.605Z,0.50
2023-05-15T15:02:04.566Z,0.50
2023-05-15T15:04:34.620Z,0.50
2023-05-15T15:07:04.822Z,0.47
2023-05-15T15:09:32.852Z,0.50
2023-05-15T15:12:00.835Z,0.40
2023-05-15T15:14:28.640Z,0.50
2023-05-15T15:16:57.845Z,0.40
2023-05-15T15:19:25.774Z,0.50
2023-05-15T15:21:53.664Z,0.40
2023-05-15T15:24:21.575Z,0.50
2023-05-15T15:26:51.028Z,0.40
2023-05-15T15:29:18.876Z,0.43
2023-05-15T15:31:46.809Z,0.50
2023-05-15T15:34:16.486Z,0.50
2023-05-15T15:36:45.255Z,0.50
2023-05-15T15:39:13.303Z,0.50
2023-05-15T15:41:41.232Z,0.50
2023-05-15T15:44:09.039Z,0.50
2023-05-15T15:46:36.925Z,0.40
2023-05-15T15:49:06.606Z,0.50
2023-05-15T15:51:36.286Z,0.50
2023-05-15T15:54:04.164Z,0.50
2023-05-15T15:56:31.979Z,0.50
2023-05-15T15:58:59.812Z,0.50
2023-05-15T16:01:27.693Z,0.40
2023-05-15T16:03:55.585Z,0.60
2023-05-15T16:06:23.445Z,0.47
2023-05-15T16:08:52.901Z,0.50
2023-05-15T16:11:21.495Z,0.50
2023-05-15T16:13:49.374Z,0.50
2023-05-15T16:16:17.272Z,0.50
2023-05-15T16:18:45.879Z,0.40
2023-05-15T16:21:14.070Z,0.40
2023-05-15T16:23:41.937Z,0.40
2023-05-15T16:26:11.982Z,0.50
2023-05-15T16:28:39.913Z,0.40
2023-05-15T16:31:08.033Z,0.50
2023-05-15T16:33:35.961Z,0.40
2023-05-15T16:36:05.275Z,0.50
2023-05-15T16:38:33.209Z,0.50
2023-05-15T16:41:01.491Z,0.50
2023-05-15T16:43:30.708Z,0.30
2023-05-15T16:45:59.294Z,0.50
2023-05-15T16:48:28.077Z,0.47
2023-05-15T16:50:55.914Z,0.43
2023-05-15T16:53:23.821Z,0.33
2023-05-15T16:55:51.851Z,0.30
2023-05-15T16:58:20.165Z,0.50
2023-05-15T17:00:50.338Z,0.50
2023-05-15T17:03:19.061Z,0.53
2023-05-15T17:05:48.563Z,0.40
2023-05-15T17:08:16.456Z,0.50
2023-05-15T17:10:44.286Z,0.40
2023-05-15T17:13:12.134Z,0.63
2023-05-15T17:15:40.009Z,0.50
2023-05-15T17:18:09.284Z,0.47
2023-05-15T17:20:37.240Z,0.50
2023-05-15T17:23:05.135Z,0.50
2023-05-15T17:25:32.972Z,0.50
2023-05-15T17:28:01.003Z,0.50
2023-05-15T17:30:29.076Z,0.50
2023-05-15T17:32:57.267Z,0.47
2023-05-15T17:35:26.724Z,0.40
2023-05-15T17:37:54.870Z,0.50
2023-05-15T17:40:22.784Z,0.60
2023-05-15T17:42:50.646Z,0.50
2023-05-15T17:45:20.748Z,0.50
2023-05-15T17:47:49.420Z,0.57
2023-05-15T17:50:17.361Z,0.53
2023-05-15T17:52:46.689Z,0.50
2023-05-15T17:55:14.534Z,0.57
2023-05-15T17:57:42.351Z,0.60
2023-05-15T18:00:13.496Z,0.63
2023-05-15T18:02:41.314Z,0.73
2023-05-15T18:05:10.232Z,0.87
2023-05-15T18:07:38.097Z,0.60
2023-05-15T18:10:09.747Z,0.70
2023-05-15T18:12:37.631Z,0.77
2023-05-15T18:15:06.176Z,1.00
2023-05-15T18:17:34.133Z,0.90
2023-05-15T18:20:02.072Z,0.70
2023-05-15T18:22:29.926Z,0.70
2023-05-15T18:24:57.732Z,0.70
2023-05-15T18:27:26.908Z,0.60
2023-05-15T18:29:55.023Z,0.70
2023-05-15T18:32:22.976Z,0.50
2023-05-15T18:34:50.800Z,0.60
2023-05-15T18:37:18.662Z,0.60
2023-05-15T18:39:48.064Z,0.63
2023-05-15T18:42:16.332Z,0.60
2023-05-15T18:44:45.844Z,0.60
2023-05-15T18:47:13.728Z,0.60
2023-05-15T18:49:41.593Z,0.60
2023-05-15T18:52:09.489Z,0.60
2023-05-15T18:54:37.358Z,0.60
2023-05-15T18:57:05.309Z,0.60
2023-05-15T18:59:33.165Z,0.60
2023-05-15T19:02:02.404Z,0.60
2023-05-15T19:04:30.273Z,0.60
2023-05-15T19:06:58.116Z,0.50
2023-05-15T19:09:26.165Z,0.60
2023-05-15T19:11:53.972Z,0.70
2023-05-15T19:14:21.820Z,0.80
2023-05-15T19:16:49.688Z,0.60
2023-05-15T19:19:19.205Z,0.60
2023-05-15T19:21:47.968Z,0.60
2023-05-15T19:24:16.052Z,0.60
2023-05-15T19:26:43.944Z,0.70
2023-05-15T19:29:11.820Z,0.80
2023-05-15T19:31:39.814Z,0.90
2023-05-15T19:34:07.768Z,1.00
2023-05-15T19:36:36.943Z,0.93
2023-05-15T19:39:04.933Z,1.10
2023-05-15T19:41:33.077Z,1.47
2023-05-15T19:44:08.353Z,1.40
2023-05-15T19:46:36.210Z,1.70
2023-05-15T19:49:04.172Z,1.27
2023-05-15T19:51:32.587Z,1.30
2023-05-15T19:54:02.234Z,1.20
2023-05-15T19:56:30.161Z,1.20
2023-05-15T19:58:58.112Z,0.90
2023-05-15T20:01:26.091Z,1.07
2023-05-15T20:03:54.077Z,0.90
2023-05-15T20:06:22.116Z,1.10
2023-05-15T20:08:50.437Z,1.00
2023-05-15T20:11:19.889Z,0.90
2023-05-15T20:13:47.722Z,0.90
2023-05-15T20:16:18.295Z,0.97
2023-05-15T20:18:47.987Z,0.90
2023-05-15T20:21:16.343Z,0.80
2023-05-15T20:23:44.159Z,0.97
2023-05-15T20:26:12.002Z,0.80
2023-05-15T20:28:42.138Z,1.00
2023-05-15T20:31:11.731Z,0.90
2023-05-15T20:33:39.774Z,0.90
2023-05-15T20:36:07.945Z,0.90
2023-05-15T20:38:36.043Z,1.10
2023-05-15T20:41:04.049Z,1.10
2023-05-15T20:43:31.869Z,1.30
2023-05-15T20:46:01.224Z,1.00
2023-05-15T20:48:29.154Z,1.13
2023-05-15T20:50:57.156Z,1.00
2023-05-15T20:53:25.020Z,0.93
2023-05-15T20:55:52.865Z,0.93
2023-05-15T20:58:20.678Z,0.90
2023-05-15T21:00:48.576Z,0.90
2023-05-15T21:03:17.918Z,1.07
2023-05-15T21:05:46.157Z,1.00
2023-05-15T21:08:14.030Z,1.13
2023-05-15T21:10:41.889Z,1.00
2023-05-15T21:13:09.819Z,1.10
2023-05-15T21:15:37.731Z,1.13
2023-05-15T21:18:05.732Z,1.10
2023-05-15T21:20:35.381Z,1.03
2023-05-15T21:23:03.373Z,1.00
2023-05-15T21:25:31.295Z,0.93
2023-05-15T21:27:59.140Z,1.00
2023-05-15T21:30:27.143Z,0.90
2023-05-15T21:32:55.139Z,0.80
2023-05-15T21:35:23.199Z,0.80
2023-05-15T21:37:52.429Z,0.90
2023-05-15T21:40:20.324Z,0.73
2023-05-15T21:42:48.169Z,0.70
2023-05-15T21:45:16.231Z,0.70
2023-05-15T21:47:44.302Z,0.70
2023-05-15T21:50:12.632Z,0.83
2023-05-15T21:52:42.020Z,0.60
2023-05-15T21:55:12.371Z,0.60
2023-05-15T21:57:40.447Z,0.83
2023-05-15T22:00:10.504Z,0.70
2023-05-15T22:02:38.810Z,0.70
2023-05-15T22:05:07.489Z,0.67
2023-05-15T22:07:35.527Z,0.70
2023-05-15T22:10:04.700Z,0.60
2023-05-15T22:12:34.215Z,0.63
2023-05-15T22:15:02.542Z,0.60
2023-05-15T22:17:30.900Z,0.60
2023-05-15T22:20:07.478Z,0.60
2023-05-15T22:22:36.699Z,0.70
2023-05-15T22:25:05.023Z,0.60
2023-05-15T22:27:34.932Z,0.70
2023-05-15T22:30:03.020Z,0.60
2023-05-15T22:32:31.111Z,0.60
2023-05-15T22:34:59.188Z,0.70
2023-05-15T22:37:27.185Z,0.83
2023-05-15T22:39:55.215Z,0.90
2023-05-15T22:42:24.078Z,0.80
2023-05-15T22:44:55.030Z,0.80
2023-05-15T22:47:23.049Z,0.70
2023-05-15T22:49:51.139Z,0.80
2023-05-15T22:52:19.787Z,0.70
2023-05-15T22:54:47.829Z,0.70
2023-05-15T22:57:16.863Z,0.77
2023-05-15T22:59:45.506Z,0.90
2023-05-15T23:02:15.019Z,0.80
2023-05-15T23:04:43.476Z,0.70
2023-05-15T23:07:11.521Z,0.83
2023-05-15T23:09:39.508Z,0.80
2023-05-15T23:12:08.145Z,0.90
2023-05-15T23:14:36.390Z,0.97
2023-05-15T23:17:04.449Z,0.70
2023-05-15T23:19:34.000Z,0.70
2023-05-15T23:22:02.338Z,0.70
2023-05-15T23:24:30.636Z,0.70
2023-05-15T23:26:58.592Z,0.87
2023-05-15T23:29:26.655Z,0.73
2023-05-15T23:31:57.733Z,0.70
2023-05-15T23:34:25.786Z,0.80
2023-05-15T23:36:55.266Z,0.70
2023-05-15T23:39:23.306Z,0.90
2023-05-15T23:41:51.505Z,0.80
2023-05-15T23:44:19.508Z,0.70
2023-05-15T23:46:47.513Z,0.73
2023-05-15T23:49:15.552Z,0.77
2023-05-15T23:51:43.771Z,0.70
2023-05-15T23:54:13.158Z,0.70
2023-05-15T23:56:41.247Z,0.97
2023-05-15T23:59:09.269Z,0.83
